sensor_id;sensor_type;location;lat;lon;timestamp;P1;durP1;ratioP1;P2;durP2;ratioP2
28756;SDS011;44294;48.282;14.282;2023-07-31T00:01:44;0.70;;;0.70;;
28756;SDS011;44294;48.282;14.282;2023-07-31T00:04:32;0.60;;;0.60;;
28756;SDS011;44294;48.282;14.282;2023-07-31T00:07:19;0.80;;;0.80;;
28756;SDS011;44294;48.282;14.282;2023-07-31T00:10:06;0.70;;;0.70;;
28756;SDS011;44294;48.282;14.282;2023-07-31T00:12:54;0.60;;;0.60;;
28756;SDS011;44294;48.282;14.282;2023-07-31T00:15:41;0.60;;;0.60;;
28756;SDS011;44294;48.282;14.282;2023-07-31T00:18:28;0.60;;;0.60;;
28756;SDS011;44294;48.282;14.282;2023-07-31T00:21:16;0.60;;;0.60;;
28756;SDS011;44294;48.282;14.282;2023-07-31T00:24:04;0.60;;;0.60;;
28756;SDS011;44294;48.282;14.282;2023-07-31T00:26:51;0.60;;;0.60;;
28756;SDS011;44294;48.282;14.282;2023-07-31T00:29:38;0.60;;;0.60;;
28756;SDS011;44294;48.282;14.282;2023-07-31T00:32:26;0.70;;;0.70;;
28756;SDS011;44294;48.282;14.282;2023-07-31T00:35:13;0.60;;;0.60;;
28756;SDS011;44294;48.282;14.282;2023-07-31T00:38:00;0.70;;;0.70;;
28756;SDS011;44294;48.282;14.282;2023-07-31T00:40:48;0.70;;;0.70;;
28756;SDS011;44294;48.282;14.282;2023-07-31T00:43:35;0.70;;;0.70;;
28756;SDS011;44294;48.282;14.282;2023-07-31T00:46:23;0.70;;;0.70;;
28756;SDS011;44294;48.282;14.282;2023-07-31T00:49:10;0.60;;;0.60;;
28756;SDS011;44294;48.282;14.282;2023-07-31T00:51:58;0.60;;;0.60;;
28756;SDS011;44294;48.282;14.282;2023-07-31T00:54:46;0.60;;;0.60;;
28756;SDS011;44294;48.282;14.282;2023-07-31T00:57:33;0.60;;;0.60;;
28756;SDS011;44294;48.282;14.282;2023-07-31T01:00:21;0.70;;;0.70;;
28756;SDS011;44294;48.282;14.282;2023-07-31T01:03:09;0.60;;;0.60;;
28756;SDS011;44294;48.282;14.282;2023-07-31T01:06:06;0.60;;;0.60;;
28756;SDS011;44294;48.282;14.282;2023-07-31T01:08:57;0.60;;;0.60;;
28756;SDS011;44294;48.282;14.282;2023-07-31T01:11:46;0.60;;;0.60;;
28756;SDS011;44294;48.282;14.282;2023-07-31T01:14:32;0.60;;;0.60;;
28756;SDS011;44294;48.282;14.282;2023-07-31T01:17:19;0.67;;;0.67;;
28756;SDS011;44294;48.282;14.282;2023-07-31T01:23:11;0.60;;;0.60;;
28756;SDS011;44294;48.282;14.282;2023-07-31T01:28:58;0.70;;;0.70;;
28756;SDS011;44294;48.282;14.282;2023-07-31T01:31:40;0.70;;;0.70;;
28756;SDS011;44294;48.282;14.282;2023-07-31T01:34:29;0.70;;;0.70;;
28756;SDS011;44294;48.282;14.282;2023-07-31T01:37:16;0.60;;;0.60;;
28756;SDS011;44294;48.282;14.282;2023-07-31T01:40:04;0.70;;;0.70;;
28756;SDS011;44294;48.282;14.282;2023-07-31T01:42:52;0.70;;;0.70;;
28756;SDS011;44294;48.282;14.282;2023-07-31T01:45:39;0.60;;;0.60;;
28756;SDS011;44294;48.282;14.282;2023-07-31T01:48:27;0.60;;;0.60;;
28756;SDS011;44294;48.282;14.282;2023-07-31T01:51:14;0.60;;;0.60;;
28756;SDS011;44294;48.282;14.282;2023-07-31T01:54:01;0.60;;;0.60;;
28756;SDS011;44294;48.282;14.282;2023-07-31T01:56:49;0.70;;;0.70;;
28756;SDS011;44294;48.282;14.282;2023-07-31T01:59:36;0.60;;;0.60;;
28756;SDS011;44294;48.282;14.282;2023-07-31T02:02:23;0.60;;;0.60;;
28756;SDS011;44294;48.282;14.282;2023-07-31T02:05:11;0.70;;;0.70;;
28756;SDS011;44294;48.282;14.282;2023-07-31T02:07:58;0.70;;;0.70;;
28756;SDS011;44294;48.282;14.282;2023-07-31T02:10:45;0.70;;;0.70;;
28756;SDS011;44294;48.282;14.282;2023-07-31T02:13:33;0.70;;;0.70;;
28756;SDS011;44294;48.282;14.282;2023-07-31T02:16:20;0.70;;;0.70;;
28756;SDS011;44294;48.282;14.282;2023-07-31T02:19:07;0.60;;;0.60;;
28756;SDS011;44294;48.282;14.282;2023-07-31T02:21:54;0.80;;;0.80;;
28756;SDS011;44294;48.282;14.282;2023-07-31T02:24:42;0.70;;;0.70;;
28756;SDS011;44294;48.282;14.282;2023-07-31T02:27:29;0.60;;;0.60;;
28756;SDS011;44294;48.282;14.282;2023-07-31T02:30:16;0.70;;;0.70;;
28756;SDS011;44294;48.282;14.282;2023-07-31T02:33:04;0.60;;;0.60;;
28756;SDS011;44294;48.282;14.282;2023-07-31T02:35:52;0.70;;;0.70;;
28756;SDS011;44294;48.282;14.282;2023-07-31T02:38:39;0.70;;;0.70;;
28756;SDS011;44294;48.282;14.282;2023-07-31T02:41:26;0.70;;;0.70;;
28756;SDS011;44294;48.282;14.282;2023-07-31T02:44:14;0.70;;;0.70;;
28756;SDS011;44294;48.282;14.282;2023-07-31T02:47:01;0.70;;;0.70;;
28756;SDS011;44294;48.282;14.282;2023-07-31T02:49:49;0.70;;;0.70;;
28756;SDS011;44294;48.282;14.282;2023-07-31T02:52:36;0.60;;;0.60;;
28756;SDS011;44294;48.282;14.282;2023-07-31T02:55:24;0.70;;;0.70;;
28756;SDS011;44294;48.282;14.282;2023-07-31T02:58:11;0.60;;;0.60;;
28756;SDS011;44294;48.282;14.282;2023-07-31T03:00:58;0.53;;;0.53;;
28756;SDS011;44294;48.282;14.282;2023-07-31T03:03:46;0.70;;;0.70;;
28756;SDS011;44294;48.282;14.282;2023-07-31T03:06:33;0.60;;;0.60;;
28756;SDS011;44294;48.282;14.282;2023-07-31T03:09:20;0.60;;;0.60;;
28756;SDS011;44294;48.282;14.282;2023-07-31T03:12:08;0.70;;;0.70;;
28756;SDS011;44294;48.282;14.282;2023-07-31T03:14:55;0.70;;;0.70;;
28756;SDS011;44294;48.282;14.282;2023-07-31T03:17:42;0.60;;;0.60;;
28756;SDS011;44294;48.282;14.282;2023-07-31T03:20:30;0.60;;;0.60;;
28756;SDS011;44294;48.282;14.282;2023-07-31T03:23:17;0.63;;;0.63;;
28756;SDS011;44294;48.282;14.282;2023-07-31T03:26:06;0.60;;;0.60;;
28756;SDS011;44294;48.282;14.282;2023-07-31T03:28:53;0.60;;;0.60;;
28756;SDS011;44294;48.282;14.282;2023-07-31T03:31:40;0.63;;;0.63;;
28756;SDS011;44294;48.282;14.282;2023-07-31T03:34:28;0.70;;;0.70;;
28756;SDS011;44294;48.282;14.282;2023-07-31T03:37:17;0.70;;;0.70;;
28756;SDS011;44294;48.282;14.282;2023-07-31T03:40:05;0.70;;;0.70;;
28756;SDS011;44294;48.282;14.282;2023-07-31T03:42:52;0.60;;;0.60;;
28756;SDS011;44294;48.282;14.282;2023-07-31T03:45:40;0.70;;;0.70;;
28756;SDS011;44294;48.282;14.282;2023-07-31T03:48:27;0.60;;;0.60;;
28756;SDS011;44294;48.282;14.282;2023-07-31T03:51:14;0.70;;;0.70;;
28756;SDS011;44294;48.282;14.282;2023-07-31T03:54:01;0.60;;;0.60;;
28756;SDS011;44294;48.282;14.282;2023-07-31T03:56:49;0.60;;;0.60;;
28756;SDS011;44294;48.282;14.282;2023-07-31T03:59:36;0.70;;;0.70;;
28756;SDS011;44294;48.282;14.282;2023-07-31T04:02:25;0.70;;;0.70;;
28756;SDS011;44294;48.282;14.282;2023-07-31T04:05:13;0.70;;;0.70;;
28756;SDS011;44294;48.282;14.282;2023-07-31T04:08:00;0.70;;;0.70;;
28756;SDS011;44294;48.282;14.282;2023-07-31T04:10:47;0.70;;;0.70;;
28756;SDS011;44294;48.282;14.282;2023-07-31T04:13:35;0.70;;;0.70;;
28756;SDS011;44294;48.282;14.282;2023-07-31T04:16:22;0.67;;;0.67;;
28756;SDS011;44294;48.282;14.282;2023-07-31T04:19:09;0.70;;;0.70;;
28756;SDS011;44294;48.282;14.282;2023-07-31T04:21:57;0.60;;;0.60;;
28756;SDS011;44294;48.282;14.282;2023-07-31T04:24:44;0.70;;;0.70;;
28756;SDS011;44294;48.282;14.282;2023-07-31T04:27:31;0.70;;;0.70;;
28756;SDS011;44294;48.282;14.282;2023-07-31T04:30:19;0.70;;;0.70;;
28756;SDS011;44294;48.282;14.282;2023-07-31T04:33:06;0.70;;;0.70;;
28756;SDS011;44294;48.282;14.282;2023-07-31T04:35:53;0.70;;;0.70;;
28756;SDS011;44294;48.282;14.282;2023-07-31T04:38:41;0.70;;;0.70;;
28756;SDS011;44294;48.282;14.282;2023-07-31T04:41:28;0.67;;;0.67;;
28756;SDS011;44294;48.282;14.282;2023-07-31T04:44:15;0.70;;;0.70;;
28756;SDS011;44294;48.282;14.282;2023-07-31T04:47:03;0.63;;;0.63;;
28756;SDS011;44294;48.282;14.282;2023-07-31T04:49:50;0.70;;;0.70;;
28756;SDS011;44294;48.282;14.282;2023-07-31T04:52:38;0.70;;;0.70;;
28756;SDS011;44294;48.282;14.282;2023-07-31T04:55:25;0.70;;;0.70;;
28756;SDS011;44294;48.282;14.282;2023-07-31T04:58:12;0.70;;;0.70;;
28756;SDS011;44294;48.282;14.282;2023-07-31T05:00:59;0.70;;;0.70;;
28756;SDS011;44294;48.282;14.282;2023-07-31T05:03:47;0.70;;;0.70;;
28756;SDS011;44294;48.282;14.282;2023-07-31T05:06:34;0.70;;;0.70;;
28756;SDS011;44294;48.282;14.282;2023-07-31T05:09:21;0.70;;;0.70;;
28756;SDS011;44294;48.282;14.282;2023-07-31T05:12:09;0.70;;;0.70;;
28756;SDS011;44294;48.282;14.282;2023-07-31T05:14:56;0.70;;;0.70;;
28756;SDS011;44294;48.282;14.282;2023-07-31T05:17:44;0.63;;;0.63;;
28756;SDS011;44294;48.282;14.282;2023-07-31T05:20:31;0.70;;;0.70;;
28756;SDS011;44294;48.282;14.282;2023-07-31T05:23:18;0.70;;;0.70;;
28756;SDS011;44294;48.282;14.282;2023-07-31T05:26:06;0.70;;;0.70;;
28756;SDS011;44294;48.282;14.282;2023-07-31T05:28:53;0.70;;;0.70;;
28756;SDS011;44294;48.282;14.282;2023-07-31T05:31:40;0.70;;;0.70;;
28756;SDS011;44294;48.282;14.282;2023-07-31T05:34:28;0.70;;;0.70;;
28756;SDS011;44294;48.282;14.282;2023-07-31T05:37:15;0.70;;;0.70;;
28756;SDS011;44294;48.282;14.282;2023-07-31T05:40:02;0.70;;;0.70;;
28756;SDS011;44294;48.282;14.282;2023-07-31T05:42:50;0.60;;;0.60;;
28756;SDS011;44294;48.282;14.282;2023-07-31T05:45:37;0.70;;;0.70;;
28756;SDS011;44294;48.282;14.282;2023-07-31T05:48:26;0.70;;;0.70;;
28756;SDS011;44294;48.282;14.282;2023-07-31T05:51:13;0.60;;;0.60;;
28756;SDS011;44294;48.282;14.282;2023-07-31T05:54:01;0.70;;;0.70;;
28756;SDS011;44294;48.282;14.282;2023-07-31T05:56:48;0.60;;;0.60;;
28756;SDS011;44294;48.282;14.282;2023-07-31T05:59:35;0.70;;;0.70;;
28756;SDS011;44294;48.282;14.282;2023-07-31T06:02:23;0.70;;;0.70;;
28756;SDS011;44294;48.282;14.282;2023-07-31T06:05:10;0.60;;;0.60;;
28756;SDS011;44294;48.282;14.282;2023-07-31T06:07:57;0.60;;;0.60;;
28756;SDS011;44294;48.282;14.282;2023-07-31T06:10:45;0.60;;;0.60;;
28756;SDS011;44294;48.282;14.282;2023-07-31T06:13:32;0.60;;;0.60;;
28756;SDS011;44294;48.282;14.282;2023-07-31T06:16:20;0.60;;;0.60;;
28756;SDS011;44294;48.282;14.282;2023-07-31T06:19:08;0.70;;;0.70;;
28756;SDS011;44294;48.282;14.282;2023-07-31T06:21:55;0.60;;;0.60;;
28756;SDS011;44294;48.282;14.282;2023-07-31T06:24:42;0.70;;;0.70;;
28756;SDS011;44294;48.282;14.282;2023-07-31T06:27:29;0.63;;;0.63;;
28756;SDS011;44294;48.282;14.282;2023-07-31T06:30:17;0.60;;;0.60;;
28756;SDS011;44294;48.282;14.282;2023-07-31T06:33:04;0.70;;;0.70;;
28756;SDS011;44294;48.282;14.282;2023-07-31T06:35:51;0.60;;;0.60;;
28756;SDS011;44294;48.282;14.282;2023-07-31T06:38:39;0.60;;;0.60;;
28756;SDS011;44294;48.282;14.282;2023-07-31T06:41:26;0.70;;;0.70;;
28756;SDS011;44294;48.282;14.282;2023-07-31T06:44:13;0.70;;;0.70;;
28756;SDS011;44294;48.282;14.282;2023-07-31T06:47:01;0.70;;;0.70;;
28756;SDS011;44294;48.282;14.282;2023-07-31T06:49:48;0.60;;;0.60;;
28756;SDS011;44294;48.282;14.282;2023-07-31T06:52:35;0.60;;;0.60;;
28756;SDS011;44294;48.282;14.282;2023-07-31T06:55:23;0.70;;;0.70;;
28756;SDS011;44294;48.282;14.282;2023-07-31T06:58:10;0.70;;;0.70;;
28756;SDS011;44294;48.282;14.282;2023-07-31T07:00:57;0.60;;;0.60;;
28756;SDS011;44294;48.282;14.282;2023-07-31T07:03:45;0.70;;;0.70;;
28756;SDS011;44294;48.282;14.282;2023-07-31T07:06:32;0.70;;;0.70;;
28756;SDS011;44294;48.282;14.282;2023-07-31T07:09:19;0.60;;;0.60;;
28756;SDS011;44294;48.282;14.282;2023-07-31T07:12:07;0.70;;;0.70;;
28756;SDS011;44294;48.282;14.282;2023-07-31T07:14:55;0.70;;;0.70;;
28756;SDS011;44294;48.282;14.282;2023-07-31T07:17:43;0.60;;;0.60;;
28756;SDS011;44294;48.282;14.282;2023-07-31T07:20:31;0.60;;;0.60;;
28756;SDS011;44294;48.282;14.282;2023-07-31T07:23:18;0.60;;;0.60;;
28756;SDS011;44294;48.282;14.282;2023-07-31T07:26:06;0.70;;;0.70;;
28756;SDS011;44294;48.282;14.282;2023-07-31T07:28:53;0.60;;;0.60;;
28756;SDS011;44294;48.282;14.282;2023-07-31T07:31:40;0.60;;;0.60;;
28756;SDS011;44294;48.282;14.282;2023-07-31T07:34:28;0.60;;;0.60;;
28756;SDS011;44294;48.282;14.282;2023-07-31T07:37:15;0.50;;;0.50;;
28756;SDS011;44294;48.282;14.282;2023-07-31T07:40:03;0.60;;;0.60;;
28756;SDS011;44294;48.282;14.282;2023-07-31T07:42:51;0.60;;;0.60;;
28756;SDS011;44294;48.282;14.282;2023-07-31T07:45:39;0.60;;;0.60;;
28756;SDS011;44294;48.282;14.282;2023-07-31T07:48:26;0.50;;;0.50;;
28756;SDS011;44294;48.282;14.282;2023-07-31T07:51:13;0.60;;;0.60;;
28756;SDS011;44294;48.282;14.282;2023-07-31T07:54:01;0.60;;;0.60;;
28756;SDS011;44294;48.282;14.282;2023-07-31T07:56:48;0.60;;;0.60;;
28756;SDS011;44294;48.282;14.282;2023-07-31T07:59:36;0.60;;;0.60;;
28756;SDS011;44294;48.282;14.282;2023-07-31T08:02:23;0.60;;;0.60;;
28756;SDS011;44294;48.282;14.282;2023-07-31T08:05:10;0.60;;;0.60;;
28756;SDS011;44294;48.282;14.282;2023-07-31T08:07:58;0.60;;;0.60;;
28756;SDS011;44294;48.282;14.282;2023-07-31T08:10:45;0.53;;;0.53;;
28756;SDS011;44294;48.282;14.282;2023-07-31T08:13:32;0.60;;;0.60;;
28756;SDS011;44294;48.282;14.282;2023-07-31T08:16:19;0.60;;;0.60;;
28756;SDS011;44294;48.282;14.282;2023-07-31T08:19:07;0.60;;;0.60;;
28756;SDS011;44294;48.282;14.282;2023-07-31T08:21:54;0.50;;;0.50;;
28756;SDS011;44294;48.282;14.282;2023-07-31T08:24:41;0.60;;;0.60;;
28756;SDS011;44294;48.282;14.282;2023-07-31T08:27:29;0.60;;;0.60;;
28756;SDS011;44294;48.282;14.282;2023-07-31T08:30:16;0.60;;;0.60;;
28756;SDS011;44294;48.282;14.282;2023-07-31T08:33:03;0.53;;;0.53;;
28756;SDS011;44294;48.282;14.282;2023-07-31T08:35:51;0.60;;;0.60;;
28756;SDS011;44294;48.282;14.282;2023-07-31T08:38:38;0.60;;;0.60;;
28756;SDS011;44294;48.282;14.282;2023-07-31T08:41:25;0.60;;;0.60;;
28756;SDS011;44294;48.282;14.282;2023-07-31T08:44:14;0.60;;;0.60;;
28756;SDS011;44294;48.282;14.282;2023-07-31T08:47:02;0.60;;;0.60;;
28756;SDS011;44294;48.282;14.282;2023-07-31T08:49:49;0.50;;;0.50;;
28756;SDS011;44294;48.282;14.282;2023-07-31T08:52:38;0.60;;;0.60;;
28756;SDS011;44294;48.282;14.282;2023-07-31T08:55:26;0.57;;;0.57;;
28756;SDS011;44294;48.282;14.282;2023-07-31T08:58:13;0.60;;;0.60;;
28756;SDS011;44294;48.282;14.282;2023-07-31T09:01:01;0.50;;;0.50;;
28756;SDS011;44294;48.282;14.282;2023-07-31T09:03:49;0.50;;;0.50;;
28756;SDS011;44294;48.282;14.282;2023-07-31T09:06:38;0.60;;;0.60;;
28756;SDS011;44294;48.282;14.282;2023-07-31T09:09:26;0.57;;;0.57;;
28756;SDS011;44294;48.282;14.282;2023-07-31T09:12:13;0.50;;;0.50;;
28756;SDS011;44294;48.282;14.282;2023-07-31T09:15:00;0.60;;;0.60;;
28756;SDS011;44294;48.282;14.282;2023-07-31T09:17:48;0.50;;;0.50;;
28756;SDS011;44294;48.282;14.282;2023-07-31T09:20:37;0.60;;;0.60;;
28756;SDS011;44294;48.282;14.282;2023-07-31T09:23:25;0.60;;;0.60;;
28756;SDS011;44294;48.282;14.282;2023-07-31T09:26:15;0.50;;;0.50;;
28756;SDS011;44294;48.282;14.282;2023-07-31T09:29:01;0.50;;;0.50;;
28756;SDS011;44294;48.282;14.282;2023-07-31T09:31:50;0.50;;;0.50;;
28756;SDS011;44294;48.282;14.282;2023-07-31T09:34:37;0.50;;;0.50;;
28756;SDS011;44294;48.282;14.282;2023-07-31T09:37:25;0.50;;;0.50;;
28756;SDS011;44294;48.282;14.282;2023-07-31T09:40:14;0.50;;;0.50;;
28756;SDS011;44294;48.282;14.282;2023-07-31T09:43:02;0.50;;;0.50;;
28756;SDS011;44294;48.282;14.282;2023-07-31T09:45:54;0.50;;;0.50;;
28756;SDS011;44294;48.282;14.282;2023-07-31T09:48:39;0.50;;;0.50;;
28756;SDS011;44294;48.282;14.282;2023-07-31T09:51:26;0.60;;;0.60;;
28756;SDS011;44294;48.282;14.282;2023-07-31T09:54:14;0.50;;;0.50;;
28756;SDS011;44294;48.282;14.282;2023-07-31T09:57:02;0.57;;;0.57;;
28756;SDS011;44294;48.282;14.282;2023-07-31T09:59:50;0.60;;;0.60;;
28756;SDS011;44294;48.282;14.282;2023-07-31T10:02:39;0.60;;;0.60;;
28756;SDS011;44294;48.282;14.282;2023-07-31T10:08:28;0.50;;;0.50;;
28756;SDS011;44294;48.282;14.282;2023-07-31T10:11:15;0.50;;;0.50;;
28756;SDS011;44294;48.282;14.282;2023-07-31T10:14:05;0.60;;;0.60;;
28756;SDS011;44294;48.282;14.282;2023-07-31T10:16:52;0.50;;;0.50;;
28756;SDS011;44294;48.282;14.282;2023-07-31T10:19:40;0.50;;;0.50;;
28756;SDS011;44294;48.282;14.282;2023-07-31T10:22:28;0.50;;;0.50;;
28756;SDS011;44294;48.282;14.282;2023-07-31T10:25:16;0.50;;;0.50;;
28756;SDS011;44294;48.282;14.282;2023-07-31T10:28:05;0.50;;;0.50;;
28756;SDS011;44294;48.282;14.282;2023-07-31T10:30:52;0.50;;;0.50;;
28756;SDS011;44294;48.282;14.282;2023-07-31T10:33:40;0.50;;;0.50;;
28756;SDS011;44294;48.282;14.282;2023-07-31T10:36:27;0.50;;;0.50;;
28756;SDS011;44294;48.282;14.282;2023-07-31T10:39:38;0.50;;;0.50;;
28756;SDS011;44294;48.282;14.282;2023-07-31T10:42:29;0.43;;;0.43;;
28756;SDS011;44294;48.282;14.282;2023-07-31T10:45:24;0.50;;;0.50;;
28756;SDS011;44294;48.282;14.282;2023-07-31T10:48:14;0.50;;;0.50;;
28756;SDS011;44294;48.282;14.282;2023-07-31T10:51:06;0.50;;;0.50;;
28756;SDS011;44294;48.282;14.282;2023-07-31T10:53:51;0.50;;;0.50;;
28756;SDS011;44294;48.282;14.282;2023-07-31T10:56:40;0.50;;;0.50;;
28756;SDS011;44294;48.282;14.282;2023-07-31T10:59:34;0.50;;;0.50;;
28756;SDS011;44294;48.282;14.282;2023-07-31T11:02:25;0.50;;;0.50;;
28756;SDS011;44294;48.282;14.282;2023-07-31T11:05:13;0.50;;;0.50;;
28756;SDS011;44294;48.282;14.282;2023-07-31T11:08:00;0.50;;;0.50;;
28756;SDS011;44294;48.282;14.282;2023-07-31T11:10:50;0.40;;;0.40;;
28756;SDS011;44294;48.282;14.282;2023-07-31T11:13:41;0.43;;;0.43;;
28756;SDS011;44294;48.282;14.282;2023-07-31T11:16:29;0.40;;;0.40;;
28756;SDS011;44294;48.282;14.282;2023-07-31T11:19:25;0.50;;;0.50;;
28756;SDS011;44294;48.282;14.282;2023-07-31T11:22:05;0.40;;;0.40;;
28756;SDS011;44294;48.282;14.282;2023-07-31T11:24:54;0.50;;;0.50;;
28756;SDS011;44294;48.282;14.282;2023-07-31T11:27:41;0.50;;;0.50;;
28756;SDS011;44294;48.282;14.282;2023-07-31T11:30:29;0.40;;;0.40;;
28756;SDS011;44294;48.282;14.282;2023-07-31T11:33:17;0.40;;;0.40;;
28756;SDS011;44294;48.282;14.282;2023-07-31T11:36:04;0.50;;;0.50;;
28756;SDS011;44294;48.282;14.282;2023-07-31T11:38:51;0.50;;;0.50;;
28756;SDS011;44294;48.282;14.282;2023-07-31T11:41:43;0.50;;;0.50;;
28756;SDS011;44294;48.282;14.282;2023-07-31T11:44:36;0.50;;;0.50;;
28756;SDS011;44294;48.282;14.282;2023-07-31T11:47:16;0.50;;;0.50;;
28756;SDS011;44294;48.282;14.282;2023-07-31T11:50:05;0.50;;;0.50;;
28756;SDS011;44294;48.282;14.282;2023-07-31T11:53:00;0.40;;;0.40;;
28756;SDS011;44294;48.282;14.282;2023-07-31T11:55:44;0.50;;;0.50;;
28756;SDS011;44294;48.282;14.282;2023-07-31T11:58:33;0.40;;;0.40;;
28756;SDS011;44294;48.282;14.282;2023-07-31T12:01:21;0.50;;;0.50;;
28756;SDS011;44294;48.282;14.282;2023-07-31T12:04:09;0.50;;;0.50;;
28756;SDS011;44294;48.282;14.282;2023-07-31T12:06:56;0.50;;;0.50;;
28756;SDS011;44294;48.282;14.282;2023-07-31T12:09:52;0.50;;;0.50;;
28756;SDS011;44294;48.282;14.282;2023-07-31T12:12:39;0.50;;;0.50;;
28756;SDS011;44294;48.282;14.282;2023-07-31T12:15:33;0.50;;;0.50;;
28756;SDS011;44294;48.282;14.282;2023-07-31T12:18:21;0.50;;;0.50;;
28756;SDS011;44294;48.282;14.282;2023-07-31T12:21:09;0.50;;;0.50;;
28756;SDS011;44294;48.282;14.282;2023-07-31T12:23:58;0.50;;;0.50;;
28756;SDS011;44294;48.282;14.282;2023-07-31T12:26:45;0.50;;;0.50;;
28756;SDS011;44294;48.282;14.282;2023-07-31T12:29:33;0.50;;;0.50;;
28756;SDS011;44294;48.282;14.282;2023-07-31T12:32:22;0.40;;;0.40;;
28756;SDS011;44294;48.282;14.282;2023-07-31T12:35:12;0.40;;;0.40;;
28756;SDS011;44294;48.282;14.282;2023-07-31T12:38:01;0.40;;;0.40;;
28756;SDS011;44294;48.282;14.282;2023-07-31T12:40:48;0.50;;;0.50;;
28756;SDS011;44294;48.282;14.282;2023-07-31T12:43:36;0.40;;;0.40;;
28756;SDS011;44294;48.282;14.282;2023-07-31T12:46:23;0.50;;;0.50;;
28756;SDS011;44294;48.282;14.282;2023-07-31T12:49:11;0.40;;;0.40;;
28756;SDS011;44294;48.282;14.282;2023-07-31T12:51:58;0.50;;;0.50;;
28756;SDS011;44294;48.282;14.282;2023-07-31T12:54:45;0.40;;;0.40;;
28756;SDS011;44294;48.282;14.282;2023-07-31T12:57:33;0.50;;;0.50;;
28756;SDS011;44294;48.282;14.282;2023-07-31T13:00:20;0.40;;;0.40;;
28756;SDS011;44294;48.282;14.282;2023-07-31T13:03:07;0.50;;;0.50;;
28756;SDS011;44294;48.282;14.282;2023-07-31T13:05:55;0.50;;;0.50;;
28756;SDS011;44294;48.282;14.282;2023-07-31T13:08:42;0.50;;;0.50;;
28756;SDS011;44294;48.282;14.282;2023-07-31T13:11:29;0.50;;;0.50;;
28756;SDS011;44294;48.282;14.282;2023-07-31T13:14:17;0.50;;;0.50;;
28756;SDS011;44294;48.282;14.282;2023-07-31T13:17:04;0.50;;;0.50;;
28756;SDS011;44294;48.282;14.282;2023-07-31T13:19:51;0.40;;;0.40;;
28756;SDS011;44294;48.282;14.282;2023-07-31T13:22:39;0.50;;;0.50;;
28756;SDS011;44294;48.282;14.282;2023-07-31T13:25:26;0.50;;;0.50;;
28756;SDS011;44294;48.282;14.282;2023-07-31T13:28:13;0.40;;;0.40;;
28756;SDS011;44294;48.282;14.282;2023-07-31T13:31:01;0.50;;;0.50;;
28756;SDS011;44294;48.282;14.282;2023-07-31T13:33:48;0.40;;;0.40;;
28756;SDS011;44294;48.282;14.282;2023-07-31T13:36:35;0.50;;;0.50;;
28756;SDS011;44294;48.282;14.282;2023-07-31T13:39:23;0.50;;;0.50;;
28756;SDS011;44294;48.282;14.282;2023-07-31T13:42:10;0.50;;;0.50;;
28756;SDS011;44294;48.282;14.282;2023-07-31T13:44:58;0.50;;;0.50;;
28756;SDS011;44294;48.282;14.282;2023-07-31T13:47:46;0.40;;;0.40;;
28756;SDS011;44294;48.282;14.282;2023-07-31T13:50:33;0.50;;;0.50;;
28756;SDS011;44294;48.282;14.282;2023-07-31T13:53:21;0.50;;;0.50;;
28756;SDS011;44294;48.282;14.282;2023-07-31T13:56:08;0.50;;;0.50;;
28756;SDS011;44294;48.282;14.282;2023-07-31T13:58:55;0.50;;;0.50;;
28756;SDS011;44294;48.282;14.282;2023-07-31T14:01:43;0.50;;;0.50;;
28756;SDS011;44294;48.282;14.282;2023-07-31T14:04:30;0.50;;;0.50;;
28756;SDS011;44294;48.282;14.282;2023-07-31T14:07:18;0.50;;;0.50;;
28756;SDS011;44294;48.282;14.282;2023-07-31T14:10:05;0.50;;;0.50;;
28756;SDS011;44294;48.282;14.282;2023-07-31T14:12:52;0.40;;;0.40;;
28756;SDS011;44294;48.282;14.282;2023-07-31T14:15:41;0.50;;;0.50;;
28756;SDS011;44294;48.282;14.282;2023-07-31T14:18:29;0.40;;;0.40;;
28756;SDS011;44294;48.282;14.282;2023-07-31T14:21:16;0.50;;;0.50;;
28756;SDS011;44294;48.282;14.282;2023-07-31T14:24:05;0.50;;;0.50;;
28756;SDS011;44294;48.282;14.282;2023-07-31T14:26:53;0.50;;;0.50;;
28756;SDS011;44294;48.282;14.282;2023-07-31T14:29:40;0.50;;;0.50;;
28756;SDS011;44294;48.282;14.282;2023-07-31T14:32:27;0.50;;;0.50;;
28756;SDS011;44294;48.282;14.282;2023-07-31T14:35:15;0.50;;;0.50;;
28756;SDS011;44294;48.282;14.282;2023-07-31T14:38:02;0.50;;;0.50;;
28756;SDS011;44294;48.282;14.282;2023-07-31T14:40:50;0.50;;;0.50;;
28756;SDS011;44294;48.282;14.282;2023-07-31T14:43:37;0.50;;;0.50;;
28756;SDS011;44294;48.282;14.282;2023-07-31T14:46:24;0.47;;;0.47;;
28756;SDS011;44294;48.282;14.282;2023-07-31T14:49:12;0.50;;;0.50;;
28756;SDS011;44294;48.282;14.282;2023-07-31T14:51:59;0.60;;;0.60;;
28756;SDS011;44294;48.282;14.282;2023-07-31T14:54:46;0.50;;;0.50;;
28756;SDS011;44294;48.282;14.282;2023-07-31T14:57:34;0.50;;;0.50;;
28756;SDS011;44294;48.282;14.282;2023-07-31T15:00:21;0.50;;;0.50;;
28756;SDS011;44294;48.282;14.282;2023-07-31T15:03:10;0.50;;;0.50;;
28756;SDS011;44294;48.282;14.282;2023-07-31T15:05:57;0.50;;;0.50;;
28756;SDS011;44294;48.282;14.282;2023-07-31T15:08:44;0.50;;;0.50;;
28756;SDS011;44294;48.282;14.282;2023-07-31T15:11:32;0.40;;;0.40;;
28756;SDS011;44294;48.282;14.282;2023-07-31T15:14:19;0.50;;;0.50;;
28756;SDS011;44294;48.282;14.282;2023-07-31T15:17:07;0.40;;;0.40;;
28756;SDS011;44294;48.282;14.282;2023-07-31T15:19:54;0.50;;;0.50;;
28756;SDS011;44294;48.282;14.282;2023-07-31T15:22:41;0.50;;;0.50;;
28756;SDS011;44294;48.282;14.282;2023-07-31T15:25:29;0.50;;;0.50;;
28756;SDS011;44294;48.282;14.282;2023-07-31T15:28:16;0.50;;;0.50;;
28756;SDS011;44294;48.282;14.282;2023-07-31T15:31:05;0.60;;;0.60;;
28756;SDS011;44294;48.282;14.282;2023-07-31T15:33:52;0.60;;;0.60;;
28756;SDS011;44294;48.282;14.282;2023-07-31T15:36:40;0.50;;;0.50;;
28756;SDS011;44294;48.282;14.282;2023-07-31T15:39:27;0.50;;;0.50;;
28756;SDS011;44294;48.282;14.282;2023-07-31T15:42:15;0.50;;;0.50;;
28756;SDS011;44294;48.282;14.282;2023-07-31T15:45:02;0.50;;;0.50;;
28756;SDS011;44294;48.282;14.282;2023-07-31T15:47:49;0.50;;;0.50;;
28756;SDS011;44294;48.282;14.282;2023-07-31T15:50:37;0.50;;;0.50;;
28756;SDS011;44294;48.282;14.282;2023-07-31T15:53:24;0.50;;;0.50;;
28756;SDS011;44294;48.282;14.282;2023-07-31T15:56:11;0.53;;;0.53;;
28756;SDS011;44294;48.282;14.282;2023-07-31T15:58:59;0.60;;;0.60;;
28756;SDS011;44294;48.282;14.282;2023-07-31T16:01:47;0.60;;;0.60;;
28756;SDS011;44294;48.282;14.282;2023-07-31T16:04:34;0.60;;;0.60;;
28756;SDS011;44294;48.282;14.282;2023-07-31T16:07:22;0.50;;;0.50;;
28756;SDS011;44294;48.282;14.282;2023-07-31T16:10:10;0.60;;;0.60;;
28756;SDS011;44294;48.282;14.282;2023-07-31T16:12:57;0.60;;;0.60;;
28756;SDS011;44294;48.282;14.282;2023-07-31T16:15:44;0.50;;;0.50;;
28756;SDS011;44294;48.282;14.282;2023-07-31T16:18:32;0.50;;;0.50;;
28756;SDS011;44294;48.282;14.282;2023-07-31T16:21:19;0.50;;;0.50;;
28756;SDS011;44294;48.282;14.282;2023-07-31T16:24:06;0.50;;;0.50;;
28756;SDS011;44294;48.282;14.282;2023-07-31T16:26:54;0.50;;;0.50;;
28756;SDS011;44294;48.282;14.282;2023-07-31T16:29:41;0.50;;;0.50;;
28756;SDS011;44294;48.282;14.282;2023-07-31T16:32:28;0.50;;;0.50;;
28756;SDS011;44294;48.282;14.282;2023-07-31T16:35:16;0.50;;;0.50;;
28756;SDS011;44294;48.282;14.282;2023-07-31T16:38:03;0.50;;;0.50;;
28756;SDS011;44294;48.282;14.282;2023-07-31T16:40:50;0.50;;;0.50;;
28756;SDS011;44294;48.282;14.282;2023-07-31T16:43:38;0.50;;;0.50;;